sensor_id;sensor_type;location;lat;lon;timestamp;pressure;altitude;pressure_sealevel;temperature;humidity
61014;BME280;46899;47.542;19.082;2023-02-28T00:00:45;101579.50;;;0.00;75.35
61014;BME280;46899;47.542;19.082;2023-02-28T00:03:47;101587.56;;;0.14;74.77
61014;BME280;46899;47.542;19.082;2023-02-28T00:06:50;101589.28;;;0.15;74.46
61014;BME280;46899;47.542;19.082;2023-02-28T00:09:52;101585.72;;;0.09;74.09
61014;BME280;46899;47.542;19.082;2023-02-28T00:12:56;101587.31;;;0.05;74.41
61014;BME280;46899;47.542;19.082;2023-02-28T00:16:02;101593.25;;;0.04;74.09
61014;BME280;46899;47.542;19.082;2023-02-28T00:19:05;101599.97;;;0.00;74.66
61014;BME280;46899;47.542;19.082;2023-02-28T00:22:07;101603.63;;;0.09;74.01
61014;BME280;46899;47.542;19.082;2023-02-28T00:25:10;101617.16;;;0.05;74.06
61014;BME280;46899;47.542;19.082;2023-02-28T00:28:14;101606.63;;;-0.05;74.79
61014;BME280;46899;47.542;19.082;2023-02-28T00:31:16;101614.28;;;-0.06;75.02
61014;BME280;46899;47.542;19.082;2023-02-28T00:34:19;101615.94;;;-0.08;75.77
61014;BME280;46899;47.542;19.082;2023-02-28T00:37:21;101615.06;;;-0.09;77.05
61014;BME280;46899;47.542;19.082;2023-02-28T00:40:25;101613.47;;;-0.05;77.19
61014;BME280;46899;47.542;19.082;2023-02-28T00:43:27;101618.38;;;-0.13;77.73
61014;BME280;46899;47.542;19.082;2023-02-28T00:46:30;101615.84;;;-0.11;77.94
61014;BME280;46899;47.542;19.082;2023-02-28T00:49:33;101627.81;;;-0.10;78.07
61014;BME280;46899;47.542;19.082;2023-02-28T00:52:36;101620.19;;;-0.09;78.00
61014;BME280;46899;47.542;19.082;2023-02-28T00:55:39;101618.97;;;0.09;76.51
61014;BME280;46899;47.542;19.082;2023-02-28T00:58:42;101615.91;;;0.22;75.66
61014;BME280;46899;47.542;19.082;2023-02-28T01:01:44;101623.41;;;0.14;75.73
61014;BME280;46899;47.542;19.082;2023-02-28T01:04:48;101622.66;;;0.20;75.70
61014;BME280;46899;47.542;19.082;2023-02-28T01:07:51;101624.47;;;0.24;76.11
61014;BME280;46899;47.542;19.082;2023-02-28T01:10:54;101627.88;;;0.23;76.47
61014;BME280;46899;47.542;19.082;2023-02-28T01:13:56;101635.00;;;0.33;75.65
61014;BME280;46899;47.542;19.082;2023-02-28T01:16:59;101626.37;;;0.31;75.86
61014;BME280;46899;47.542;19.082;2023-02-28T01:20:02;101621.09;;;0.25;76.22
61014;BME280;46899;47.542;19.082;2023-02-28T01:23:08;101626.37;;;0.31;76.21
61014;BME280;46899;47.542;19.082;2023-02-28T01:26:12;101628.28;;;0.38;75.67
61014;BME280;46899;47.542;19.082;2023-02-28T01:29:15;101624.56;;;0.27;76.40
61014;BME280;46899;47.542;19.082;2023-02-28T01:32:17;101622.66;;;0.20;76.35
61014;BME280;46899;47.542;19.082;2023-02-28T01:35:20;101626.91;;;0.19;76.84
61014;BME280;46899;47.542;19.082;2023-02-28T01:38:22;101633.66;;;0.16;76.90
61014;BME280;46899;47.542;19.082;2023-02-28T01:41:26;101621.19;;;0.28;76.34
61014;BME280;46899;47.542;19.082;2023-02-28T01:47:51;101629.56;;;0.22;75.35
61014;BME280;46899;47.542;19.082;2023-02-28T01:50:55;101627.88;;;0.23;75.33
61014;BME280;46899;47.542;19.082;2023-02-28T01:53:59;101624.41;;;0.21;74.18
61014;BME280;46899;47.542;19.082;2023-02-28T01:57:05;101630.34;;;0.20;74.56
61014;BME280;46899;47.542;19.082;2023-02-28T02:03:14;101624.41;;;0.21;75.08
61014;BME280;46899;47.542;19.082;2023-02-28T02:06:22;101620.28;;;0.26;74.49
61014;BME280;46899;47.542;19.082;2023-02-28T02:09:25;101622.19;;;0.33;74.46
61014;BME280;46899;47.542;19.082;2023-02-28T02:12:35;101619.81;;;0.40;73.90
61014;BME280;46899;47.542;19.082;2023-02-28T02:19:09;101622.66;;;0.51;73.15
61014;BME280;46899;47.542;19.082;2023-02-28T02:42:14;101613.97;;;0.44;75.14
61014;BME280;46899;47.542;19.082;2023-02-28T02:45:22;101613.75;;;0.37;75.16
61014;BME280;46899;47.542;19.082;2023-02-28T02:48:29;101615.34;;;0.33;75.21
61014;BME280;46899;47.542;19.082;2023-02-28T02:51:33;101618.12;;;0.41;74.96
61014;BME280;46899;47.542;19.082;2023-02-28T02:54:37;101620.91;;;0.50;74.80
61014;BME280;46899;47.542;19.082;2023-02-28T02:57:44;101629.72;;;0.59;74.40
61014;BME280;46899;47.542;19.082;2023-02-28T03:00:50;101619.94;;;0.45;75.21
61014;BME280;46899;47.542;19.082;2023-02-28T03:03:59;101619.13;;;0.46;75.58
61014;BME280;46899;47.542;19.082;2023-02-28T03:07:03;101624.13;;;0.41;76.17
61014;BME280;46899;47.542;19.082;2023-02-28T03:10:25;101618.88;;;0.37;76.23
61014;BME280;46899;47.542;19.082;2023-02-28T03:13:37;101621.59;;;0.43;75.91
61014;BME280;46899;47.542;19.082;2023-02-28T03:23:45;101629.09;;;0.35;74.87
61014;BME280;46899;47.542;19.082;2023-02-28T03:26:52;101629.78;;;0.30;74.35
61014;BME280;46899;47.542;19.082;2023-02-28T03:30:01;101636.59;;;0.29;74.56
61014;BME280;46899;47.542;19.082;2023-02-28T03:33:28;101631.50;;;0.31;74.55
61014;BME280;46899;47.542;19.082;2023-02-28T03:36:30;101628.16;;;0.33;74.26
61014;BME280;46899;47.542;19.082;2023-02-28T03:39:39;101630.66;;;0.30;74.35
61014;BME280;46899;47.542;19.082;2023-02-28T03:42:45;101628.34;;;0.39;74.23
61014;BME280;46899;47.542;19.082;2023-02-28T03:45:50;101628.38;;;0.41;73.74
61014;BME280;46899;47.542;19.082;2023-02-28T03:49:36;101624.16;;;0.43;73.15
61014;BME280;46899;47.542;19.082;2023-02-28T03:52:19;101632.00;;;0.49;72.41
61014;BME280;46899;47.542;19.082;2023-02-28T03:55:24;101629.25;;;0.41;72.41
61014;BME280;46899;47.542;19.082;2023-02-28T04:01:35;101631.00;;;0.42;72.16
61014;BME280;46899;47.542;19.082;2023-02-28T04:04:40;101632.00;;;0.49;72.04
61014;BME280;46899;47.542;19.082;2023-02-28T04:07:47;101628.53;;;0.47;71.08
61014;BME280;46899;47.542;19.082;2023-02-28T04:14:19;101631.34;;;0.56;69.66
61014;BME280;46899;47.542;19.082;2023-02-28T04:17:22;101622.12;;;0.64;68.91
61014;BME280;46899;47.542;19.082;2023-02-28T04:20:24;101628.16;;;0.66;67.32
61014;BME280;46899;47.542;19.082;2023-02-28T04:23:27;101630.59;;;0.60;67.01
61014;BME280;46899;47.542;19.082;2023-02-28T04:26:30;101628.78;;;0.56;66.74
61014;BME280;46899;47.542;19.082;2023-02-28T04:29:33;101620.22;;;0.55;67.07
61014;BME280;46899;47.542;19.082;2023-02-28T04:32:35;101622.00;;;0.58;66.13
61014;BME280;46899;47.542;19.082;2023-02-28T04:35:38;101611.75;;;0.58;66.31
61014;BME280;46899;47.542;19.082;2023-02-28T04:38:41;101612.31;;;0.46;66.58
61014;BME280;46899;47.542;19.082;2023-02-28T04:41:44;101612.34;;;0.48;66.79
61014;BME280;46899;47.542;19.082;2023-02-28T04:44:46;101613.34;;;0.54;66.62
61014;BME280;46899;47.542;19.082;2023-02-28T04:47:49;101615.91;;;0.54;66.44
61014;BME280;46899;47.542;19.082;2023-02-28T04:50:52;101609.84;;;0.49;66.73
61014;BME280;46899;47.542;19.082;2023-02-28T04:53:55;101609.09;;;0.53;66.48
61014;BME280;46899;47.542;19.082;2023-02-28T04:56:57;101608.31;;;0.57;66.37
61014;BME280;46899;47.542;19.082;2023-02-28T05:00:00;101613.63;;;0.63;66.20
61014;BME280;46899;47.542;19.082;2023-02-28T05:03:05;101610.91;;;0.59;66.50
61014;BME280;46899;47.542;19.082;2023-02-28T05:06:08;101616.00;;;0.57;66.91
61014;BME280;46899;47.542;19.082;2023-02-28T05:09:11;101609.03;;;0.52;67.90
61014;BME280;46899;47.542;19.082;2023-02-28T05:12:14;101611.75;;;0.58;67.78
61014;BME280;46899;47.542;19.082;2023-02-28T05:15:16;101616.34;;;0.71;67.39
61014;BME280;46899;47.542;19.082;2023-02-28T05:18:19;101613.72;;;0.68;67.03
61014;BME280;46899;47.542;19.082;2023-02-28T05:21:26;101620.44;;;0.63;67.66
61014;BME280;46899;47.542;19.082;2023-02-28T05:24:30;101628.84;;;0.59;67.77
61014;BME280;46899;47.542;19.082;2023-02-28T05:27:32;101625.47;;;0.60;67.55
61014;BME280;46899;47.542;19.082;2023-02-28T05:30:35;101630.31;;;0.49;67.18
61014;BME280;46899;47.542;19.082;2023-02-28T05:33:38;101627.00;;;0.53;67.30
61014;BME280;46899;47.542;19.082;2023-02-28T05:36:42;101629.50;;;0.52;67.43
61014;BME280;46899;47.542;19.082;2023-02-28T05:39:44;101629.38;;;0.47;67.69
61014;BME280;46899;47.542;19.082;2023-02-28T05:42:47;101636.22;;;0.47;67.57
61014;BME280;46899;47.542;19.082;2023-02-28T05:45:49;101635.47;;;0.51;67.42
61014;BME280;46899;47.542;19.082;2023-02-28T05:48:52;101637.19;;;0.52;67.38
61014;BME280;46899;47.542;19.082;2023-02-28T05:51:55;101639.06;;;0.57;66.71
61014;BME280;46899;47.542;19.082;2023-02-28T05:54:57;101637.69;;;0.70;65.88
61014;BME280;46899;47.542;19.082;2023-02-28T05:58:00;101645.62;;;0.81;65.94
61014;BME280;46899;47.542;19.082;2023-02-28T06:01:19;101643.97;;;0.83;65.76
61014;BME280;46899;47.542;19.082;2023-02-28T06:04:22;101650.03;;;0.86;65.12
61014;BME280;46899;47.542;19.082;2023-02-28T06:07:33;101648.47;;;0.91;64.44
61014;BME280;46899;47.542;19.082;2023-02-28T06:10:36;101652.72;;;0.91;64.55
61014;BME280;46899;47.542;19.082;2023-02-28T06:13:38;101656.47;;;1.03;63.29
61014;BME280;46899;47.542;19.082;2023-02-28T06:16:41;101657.56;;;1.14;63.05
61014;BME280;46899;47.542;19.082;2023-02-28T06:19:43;101657.97;;;1.31;62.29
61014;BME280;46899;47.542;19.082;2023-02-28T06:22:46;101655.31;;;1.28;61.49
61014;BME280;46899;47.542;19.082;2023-02-28T06:25:51;101660.84;;;1.45;61.14
61014;BME280;46899;47.542;19.082;2023-02-28T06:28:55;101663.69;;;1.57;60.75
61014;BME280;46899;47.542;19.082;2023-02-28T06:31:57;101670.78;;;1.67;60.11
61014;BME280;46899;47.542;19.082;2023-02-28T06:35:00;101670.13;;;1.77;60.06
61014;BME280;46899;47.542;19.082;2023-02-28T06:38:03;101665.69;;;1.70;59.96
61014;BME280;46899;47.542;19.082;2023-02-28T06:41:07;101671.16;;;1.85;60.09
61014;BME280;46899;47.542;19.082;2023-02-28T06:44:16;101667.19;;;1.99;59.74
61014;BME280;46899;47.542;19.082;2023-02-28T06:47:19;101665.56;;;2.02;59.75
61014;BME280;46899;47.542;19.082;2023-02-28T06:50:22;101676.19;;;2.21;58.29
61014;BME280;46899;47.542;19.082;2023-02-28T06:53:24;101679.81;;;2.30;57.46
61014;BME280;46899;47.542;19.082;2023-02-28T06:56:27;101677.44;;;2.41;57.39
61014;BME280;46899;47.542;19.082;2023-02-28T06:59:29;101675.97;;;2.53;57.13
61014;BME280;46899;47.542;19.082;2023-02-28T07:02:33;101672.66;;;2.59;56.14
61014;BME280;46899;47.542;19.082;2023-02-28T07:05:36;101672.69;;;2.60;55.82
61014;BME280;46899;47.542;19.082;2023-02-28T07:08:39;101676.66;;;2.91;55.39
61014;BME280;46899;47.542;19.082;2023-02-28T07:11:43;101681.16;;;3.03;54.44
61014;BME280;46899;47.542;19.082;2023-02-28T07:14:45;101678.06;;;3.23;53.67
61014;BME280;46899;47.542;19.082;2023-02-28T07:17:48;101681.13;;;3.55;52.70
61014;BME280;46899;47.542;19.082;2023-02-28T07:20:50;101686.72;;;3.87;51.35
61014;BME280;46899;47.542;19.082;2023-02-28T07:23:53;101695.19;;;3.78;51.48
61014;BME280;46899;47.542;19.082;2023-02-28T07:26:56;101697.63;;;4.31;50.78
61014;BME280;46899;47.542;19.082;2023-02-28T07:29:59;101699.75;;;4.68;49.08
61014;BME280;46899;47.542;19.082;2023-02-28T07:33:05;101699.88;;;4.80;48.49
61014;BME280;46899;47.542;19.082;2023-02-28T07:36:09;101697.87;;;4.55;48.85
61014;BME280;46899;47.542;19.082;2023-02-28T07:39:16;101694.53;;;4.62;48.77
61014;BME280;46899;47.542;19.082;2023-02-28T07:42:18;101695.88;;;4.30;49.74
61014;BME280;46899;47.542;19.082;2023-02-28T07:45:21;101708.31;;;4.67;48.75
61014;BME280;46899;47.542;19.082;2023-02-28T07:48:23;101705.75;;;4.64;48.46
61014;BME280;46899;47.542;19.082;2023-02-28T07:51:26;101702.59;;;4.94;48.33
61014;BME280;46899;47.542;19.082;2023-02-28T07:54:29;101710.53;;;5.16;47.52
61014;BME280;46899;47.542;19.082;2023-02-28T07:57:32;101704.53;;;5.19;47.19
61014;BME280;46899;47.542;19.082;2023-02-28T08:00:35;101705.28;;;5.06;47.37
61014;BME280;46899;47.542;19.082;2023-02-28T08:03:38;101706.97;;;5.02;47.79
61014;BME280;46899;47.542;19.082;2023-02-28T08:06:41;101706.12;;;5.05;47.21
61014;BME280;46899;47.542;19.082;2023-02-28T08:09:44;101703.66;;;5.17;47.71
61014;BME280;46899;47.542;19.082;2023-02-28T08:12:46;101694.91;;;4.98;47.83
61014;BME280;46899;47.542;19.082;2023-02-28T08:15:49;101704.03;;;5.64;46.11
61014;BME280;46899;47.542;19.082;2023-02-28T08:18:52;101702.34;;;5.69;46.08
61014;BME280;46899;47.542;19.082;2023-02-28T08:21:55;101701.75;;;6.09;44.83
61014;BME280;46899;47.542;19.082;2023-02-28T08:24:58;101695.00;;;6.46;43.59
61014;BME280;46899;47.542;19.082;2023-02-28T08:28:00;101697.44;;;6.12;43.30
61014;BME280;46899;47.542;19.082;2023-02-28T08:31:10;101702.78;;;6.53;42.72
61014;BME280;46899;47.542;19.082;2023-02-28T08:34:14;101699.44;;;7.00;41.80
61014;BME280;46899;47.542;19.082;2023-02-28T08:37:17;101698.56;;;7.72;40.19
61014;BME280;46899;47.542;19.082;2023-02-28T08:40:23;101695.88;;;8.03;39.19
61014;BME280;46899;47.542;19.082;2023-02-28T08:43:27;101695.09;;;7.86;39.45
61014;BME280;46899;47.542;19.082;2023-02-28T08:46:30;101694.97;;;8.24;39.04
61014;BME280;46899;47.542;19.082;2023-02-28T08:49:32;101690.78;;;7.91;39.39
61014;BME280;46899;47.542;19.082;2023-02-28T08:52:35;101695.16;;;7.32;40.82
61014;BME280;46899;47.542;19.082;2023-02-28T08:55:37;101702.94;;;7.23;40.86
61014;BME280;46899;47.542;19.082;2023-02-28T08:58:40;101700.25;;;6.71;41.99
61014;BME280;46899;47.542;19.082;2023-02-28T09:01:43;101701.13;;;6.85;42.42
61014;BME280;46899;47.542;19.082;2023-02-28T09:04:46;101687.37;;;6.85;41.31
61014;BME280;46899;47.542;19.082;2023-02-28T09:07:49;101691.63;;;6.69;41.54
61014;BME280;46899;47.542;19.082;2023-02-28T09:10:52;101691.59;;;6.62;42.08
61014;BME280;46899;47.542;19.082;2023-02-28T09:13:55;101694.22;;;6.66;42.06
61014;BME280;46899;47.542;19.082;2023-02-28T09:16:58;101691.56;;;6.42;43.64
61014;BME280;46899;47.542;19.082;2023-02-28T09:20:00;101693.41;;;6.90;42.56
61014;BME280;46899;47.542;19.082;2023-02-28T09:23:03;101698.56;;;6.84;42.68
61014;BME280;46899;47.542;19.082;2023-02-28T09:26:05;101694.25;;;6.75;42.51
61014;BME280;46899;47.542;19.082;2023-02-28T09:29:08;101695.94;;;6.76;42.77
61014;BME280;46899;47.542;19.082;2023-02-28T09:32:11;101695.94;;;6.72;43.41
61014;BME280;46899;47.542;19.082;2023-02-28T09:35:13;101696.91;;;7.25;41.80
61014;BME280;46899;47.542;19.082;2023-02-28T09:38:18;101697.75;;;7.32;41.83
61014;BME280;46899;47.542;19.082;2023-02-28T09:41:31;101696.03;;;7.37;41.36
61014;BME280;46899;47.542;19.082;2023-02-28T09:44:38;101702.91;;;7.35;41.63
61014;BME280;46899;47.542;19.082;2023-02-28T09:47:46;101710.66;;;7.12;42.22
61014;BME280;46899;47.542;19.082;2023-02-28T09:50:51;101704.66;;;7.36;42.08
61014;BME280;46899;47.542;19.082;2023-02-28T09:53:55;101697.69;;;6.83;43.00
61014;BME280;46899;47.542;19.082;2023-02-28T09:57:07;101692.56;;;7.32;42.49
61014;BME280;46899;47.542;19.082;2023-02-28T10:06:29;101691.69;;;7.68;41.45
61014;BME280;46899;47.542;19.082;2023-02-28T10:09:33;101693.41;;;7.56;41.04
61014;BME280;46899;47.542;19.082;2023-02-28T10:12:38;101688.22;;;7.75;41.23
61014;BME280;46899;47.542;19.082;2023-02-28T10:15:42;101690.75;;;7.97;40.97
61014;BME280;46899;47.542;19.082;2023-02-28T10:18:52;101687.28;;;7.89;40.81
61014;BME280;46899;47.542;19.082;2023-02-28T10:22:01;101688.22;;;6.79;43.43
61014;BME280;46899;47.542;19.082;2023-02-28T10:25:15;101682.19;;;7.59;43.14
61014;BME280;46899;47.542;19.082;2023-02-28T10:28:18;101678.78;;;7.30;43.65
61014;BME280;46899;47.542;19.082;2023-02-28T10:31:21;101677.00;;;7.56;42.59
61014;BME280;46899;47.542;19.082;2023-02-28T10:34:26;101687.37;;;7.05;44.25
61014;BME280;46899;47.542;19.082;2023-02-28T10:37:28;101675.28;;;6.88;44.02
61014;BME280;46899;47.542;19.082;2023-02-28T10:40:33;101669.25;;;6.85;44.17
61014;BME280;46899;47.542;19.082;2023-02-28T10:43:38;101666.63;;;6.65;45.13
61014;BME280;46899;47.542;19.082;2023-02-28T10:46:41;101662.34;;;6.85;45.12
61014;BME280;46899;47.542;19.082;2023-02-28T10:49:48;101657.13;;;6.69;45.16
61014;BME280;46899;47.542;19.082;2023-02-28T10:52:51;101653.72;;;6.82;45.47
61014;BME280;46899;47.542;19.082;2023-02-28T11:02:32;101646.00;;;7.06;45.07
61014;BME280;46899;47.542;19.082;2023-02-28T11:05:40;101648.56;;;6.96;44.75
61014;BME280;46899;47.542;19.082;2023-02-28T11:08:46;101639.91;;;6.86;45.04
61014;BME280;46899;47.542;19.082;2023-02-28T11:11:49;101646.81;;;6.84;45.84
61014;BME280;46899;47.542;19.082;2023-02-28T11:14:53;101641.62;;;6.81;46.52
61014;BME280;46899;47.542;19.082;2023-02-28T11:17:58;101644.25;;;7.13;46.37
61014;BME280;46899;47.542;19.082;2023-02-28T11:21:02;101636.47;;;7.43;45.24
61014;BME280;46899;47.542;19.082;2023-02-28T11:24:12;101642.50;;;7.12;46.28
61014;BME280;46899;47.542;19.082;2023-02-28T11:30:30;101635.50;;;7.73;44.51
61014;BME280;46899;47.542;19.082;2023-02-28T11:36:39;101625.00;;;8.16;43.65
61014;BME280;46899;47.542;19.082;2023-02-28T11:39:46;101625.84;;;8.20;43.40
61014;BME280;46899;47.542;19.082;2023-02-28T11:55:38;101628.22;;;8.62;42.55
61014;BME280;46899;47.542;19.082;2023-02-28T12:05:13;101618.34;;;7.28;45.74
61014;BME280;46899;47.542;19.082;2023-02-28T12:18:07;101604.47;;;7.62;45.63
61014;BME280;46899;47.542;19.082;2023-02-28T12:24:22;101598.84;;;8.60;42.80
61014;BME280;46899;47.542;19.082;2023-02-28T12:27:29;101597.25;;;8.37;42.94
61014;BME280;46899;47.542;19.082;2023-02-28T12:30:34;101591.91;;;8.64;42.42
61014;BME280;46899;47.542;19.082;2023-02-28T12:33:40;101579.81;;;8.60;42.44
61014;BME280;46899;47.542;19.082;2023-02-28T12:36:45;101583.25;;;8.66;42.67
61014;BME280;46899;47.542;19.082;2023-02-28T12:39:50;101579.88;;;8.51;42.99
61014;BME280;46899;47.542;19.082;2023-02-28T12:42:58;101572.50;;;7.71;45.73
61014;BME280;46899;47.542;19.082;2023-02-28T12:46:06;101570.53;;;8.24;45.36
61014;BME280;46899;47.542;19.082;2023-02-28T12:49:13;101563.25;;;8.80;44.55
61014;BME280;46899;47.542;19.082;2023-02-28T12:52:41;101565.44;;;9.21;43.07
61014;BME280;46899;47.542;19.082;2023-02-28T12:55:55;101566.75;;;8.73;44.01
61014;BME280;46899;47.542;19.082;2023-02-28T12:59:01;101567.72;;;8.60;44.47
61014;BME280;46899;47.542;19.082;2023-02-28T13:02:31;101566.94;;;8.46;44.42
61014;BME280;46899;47.542;19.082;2023-02-28T13:11:50;101559.28;;;8.30;45.76
61014;BME280;46899;47.542;19.082;2023-02-28T13:15:02;101552.41;;;8.16;45.99
61014;BME280;46899;47.542;19.082;2023-02-28T13:18:20;101559.37;;;8.08;46.56
61014;BME280;46899;47.542;19.082;2023-02-28T13:21:29;101554.31;;;7.86;46.94
61014;BME280;46899;47.542;19.082;2023-02-28T13:27:42;101547.56;;;7.35;48.13
61014;BME280;46899;47.542;19.082;2023-02-28T13:34:05;101544.12;;;7.36;48.20
61014;BME280;46899;47.542;19.082;2023-02-28T13:40:28;101546.50;;;7.90;47.10
61014;BME280;46899;47.542;19.082;2023-02-28T13:53:24;101534.34;;;8.07;46.68
61014;BME280;46899;47.542;19.082;2023-02-28T13:56:34;101528.31;;;7.96;46.90
61014;BME280;46899;47.542;19.082;2023-02-28T13:59:49;101522.47;;;7.59;47.50
61014;BME280;46899;47.542;19.082;2023-02-28T14:03:11;101522.25;;;8.03;46.83
61014;BME280;46899;47.542;19.082;2023-02-28T14:09:25;101517.91;;;8.08;46.77
61014;BME280;46899;47.542;19.082;2023-02-28T14:15:57;101504.31;;;7.61;47.15
61014;BME280;46899;47.542;19.082;2023-02-28T14:19:03;101508.59;;;7.73;47.18
61014;BME280;46899;47.542;19.082;2023-02-28T14:22:26;101509.50;;;7.61;47.83
61014;BME280;46899;47.542;19.082;2023-02-28T14:38:51;101495.06;;;6.69;50.71
61014;BME280;46899;47.542;19.082;2023-02-28T14:41:57;101503.69;;;6.88;50.25
61014;BME280;46899;47.542;19.082;2023-02-28T14:45:05;101502.84;;;6.81;50.33
61014;BME280;46899;47.542;19.082;2023-02-28T14:48:09;101503.72;;;6.80;49.97
61014;BME280;46899;47.542;19.082;2023-02-28T14:51:12;101495.94;;;6.74;50.72
61014;BME280;46899;47.542;19.082;2023-02-28T14:54:20;101504.56;;;6.55;51.37
61014;BME280;46899;47.542;19.082;2023-02-28T14:57:33;101502.84;;;6.48;51.82
61014;BME280;46899;47.542;19.082;2023-02-28T15:00:36;101501.97;;;6.60;51.67
61014;BME280;46899;47.542;19.082;2023-02-28T15:03:40;101500.25;;;6.78;51.01
61014;BME280;46899;47.542;19.082;2023-02-28T15:06:44;101498.53;;;6.77;51.28
61014;BME280;46899;47.542;19.082;2023-02-28T15:09:46;101495.09;;;6.72;51.52
61014;BME280;46899;47.542;19.082;2023-02-28T15:19:23;101504.59;;;6.61;52.20
61014;BME280;46899;47.542;19.082;2023-02-28T15:22:28;101507.16;;;6.54;52.17
61014;BME280;46899;47.542;19.082;2023-02-28T15:25:31;101507.16;;;6.36;53.21
61014;BME280;46899;47.542;19.082;2023-02-28T15:28:34;101517.47;;;6.25;53.56
61014;BME280;46899;47.542;19.082;2023-02-28T15:31:43;101510.59;;;6.39;53.26
61014;BME280;46899;47.542;19.082;2023-02-28T15:34:59;101503.72;;;6.38;53.70
61014;BME280;46899;47.542;19.082;2023-02-28T15:41:30;101503.69;;;6.25;53.81
61014;BME280;46899;47.542;19.082;2023-02-28T15:44:33;101498.53;;;6.20;54.80
61014;BME280;46899;47.542;19.082;2023-02-28T15:47:39;101498.50;;;6.08;55.91
61014;BME280;46899;47.542;19.082;2023-02-28T15:50:42;101498.50;;;6.12;56.28
61014;BME280;46899;47.542;19.082;2023-02-28T15:54:28;101500.19;;;5.86;56.96
61014;BME280;46899;47.542;19.082;2023-02-28T15:57:32;101504.41;;;5.65;57.94
61014;BME280;46899;47.542;19.082;2023-02-28T16:00:34;101495.75;;;5.50;58.50
61014;BME280;46899;47.542;19.082;2023-02-28T16:03:47;101500.88;;;5.47;58.70
61014;BME280;46899;47.542;19.082;2023-02-28T16:10:02;101503.44;;;5.38;59.85
61014;BME280;46899;47.542;19.082;2023-02-28T16:13:05;101506.00;;;5.44;59.54
61014;BME280;46899;47.542;19.082;2023-02-28T16:16:14;101510.28;;;5.35;59.67
61014;BME280;46899;47.542;19.082;2023-02-28T16:19:17;101512.00;;;5.34;59.84
61014;BME280;46899;47.542;19.082;2023-02-28T16:22:20;101516.28;;;5.32;60.00
61014;BME280;46899;47.542;19.082;2023-02-28T16:25:33;101511.91;;;5.16;60.62
61014;BME280;46899;47.542;19.082;2023-02-28T16:28:36;101514.47;;;5.16;60.70
61014;BME280;46899;47.542;19.082;2023-02-28T16:31:40;101515.31;;;5.06;61.32
61014;BME280;46899;47.542;19.082;2023-02-28T16:34:43;101513.50;;;4.98;62.03
61014;BME280;46899;47.542;19.082;2023-02-28T16:37:46;101513.56;;;5.04;62.17
61014;BME280;46899;47.542;19.082;2023-02-28T16:40:51;101519.56;;;5.04;62.37
61014;BME280;46899;47.542;19.082;2023-02-28T16:43:54;101516.03;;;4.89;63.27
61014;BME280;46899;47.542;19.082;2023-02-28T16:47:01;101528.03;;;4.83;63.45
61014;BME280;46899;47.542;19.082;2023-02-28T16:50:09;101523.75;;;4.89;63.30
61014;BME280;46899;47.542;19.082;2023-02-28T16:53:20;101527.12;;;4.78;64.15
61014;BME280;46899;47.542;19.082;2023-02-28T16:56:23;101532.34;;;4.87;64.16
61014;BME280;46899;47.542;19.082;2023-02-28T16:59:26;101537.47;;;4.80;64.52
61014;BME280;46899;47.542;19.082;2023-02-28T17:02:29;101542.63;;;4.83;64.81
61014;BME280;46899;47.542;19.082;2023-02-28T17:05:37;101543.47;;;4.80;64.85
61014;BME280;46899;47.542;19.082;2023-02-28T17:08:40;101545.19;;;4.80;65.22
61014;BME280;46899;47.542;19.082;2023-02-28T17:11:43;101545.25;;;4.89;65.07
61014;BME280;46899;47.542;19.082;2023-02-28T17:14:46;101546.94;;;4.85;65.42
61014;BME280;46899;47.542;19.082;2023-02-28T17:17:49;101548.69;;;4.88;65.63
61014;BME280;46899;47.542;19.082;2023-02-28T17:20:53;101544.41;;;4.89;66.16
61014;BME280;46899;47.542;19.082;2023-02-28T17:23:56;101550.34;;;4.80;66.62
61014;BME280;46899;47.542;19.082;2023-02-28T17:26:58;101543.50;;;4.82;67.34
61014;BME280;46899;47.542;19.082;2023-02-28T17:30:02;101550.38;;;4.84;67.74
61014;BME280;46899;47.542;19.082;2023-02-28T17:33:05;101548.59;;;4.76;68.44
61014;BME280;46899;47.542;19.082;2023-02-28T17:36:10;101556.34;;;4.79;68.21
61014;BME280;46899;47.542;19.082;2023-02-28T17:39:15;101558.03;;;4.72;68.71
61014;BME280;46899;47.542;19.082;2023-02-28T17:42:22;101551.22;;;4.83;68.17
61014;BME280;46899;47.542;19.082;2023-02-28T17:45:24;101552.91;;;4.77;68.51
61014;BME280;46899;47.542;19.082;2023-02-28T17:48:27;101557.16;;;4.72;68.84
61014;BME280;46899;47.542;19.082;2023-02-28T17:51:30;101548.59;;;4.76;68.72
61014;BME280;46899;47.542;19.082;2023-02-28T17:54:32;101550.22;;;4.65;69.47
61014;BME280;46899;47.542;19.082;2023-02-28T17:57:35;101553.66;;;4.65;69.53
61014;BME280;46899;47.542;19.082;2023-02-28T18:00:38;101554.56;;;4.72;68.96
61014;BME280;46899;47.542;19.082;2023-02-28T18:03:40;101558.81;;;4.67;69.27
61014;BME280;46899;47.542;19.082;2023-02-28T18:06:43;101563.09;;;4.66;69.50
61014;BME280;46899;47.542;19.082;2023-02-28T18:09:49;101565.72;;;4.68;69.64
61014;BME280;46899;47.542;19.082;2023-02-28T18:12:52;101558.87;;;4.73;69.56
61014;BME280;46899;47.542;19.082;2023-02-28T18:15:56;101564.00;;;4.70;69.47
61014;BME280;46899;47.542;19.082;2023-02-28T18:18:58;101568.28;;;4.68;69.71
61014;BME280;46899;47.542;19.082;2023-02-28T18:22:01;101569.13;;;4.67;70.35
61014;BME280;46899;47.542;19.082;2023-02-28T18:25:04;101562.22;;;4.63;69.91
61014;BME280;46899;47.542;19.082;2023-02-28T18:28:07;101569.97;;;4.61;70.30
61014;BME280;46899;47.542;19.082;2023-02-28T18:31:11;101569.97;;;4.63;70.11
61014;BME280;46899;47.542;19.082;2023-02-28T18:34:15;101569.06;;;4.58;70.11
61014;BME280;46899;47.542;19.082;2023-02-28T18:37:17;101569.97;;;4.64;70.10
61014;BME280;46899;47.542;19.082;2023-02-28T18:40:20;101570.81;;;4.62;69.86